createdAt,value
2023-01-21T00:01:48.516Z,32.08
2023-01-21T00:04:16.499Z,30.48
2023-01-21T00:06:44.611Z,29.05
2023-01-21T00:09:12.773Z,29.63
2023-01-21T00:11:42.361Z,31.30
2023-01-21T00:14:10.282Z,29.40
2023-01-21T00:16:38.277Z,31.30
2023-01-21T00:19:06.254Z,32.40
2023-01-21T00:21:34.154Z,29.85
2023-01-21T00:24:02.153Z,31.00
2023-01-21T00:26:30.069Z,33.30
2023-01-21T00:28:59.358Z,32.27
2023-01-21T00:31:27.889Z,32.00
2023-01-21T00:33:55.973Z,33.33
2023-01-21T00:36:29.572Z,32.08
2023-01-21T00:38:57.760Z,29.02
2023-01-21T00:41:26.215Z,32.47
2023-01-21T00:43:54.512Z,31.63
2023-01-21T00:46:23.909Z,30.65
2023-01-21T00:48:51.891Z,31.50
2023-01-21T00:51:19.920Z,32.38
2023-01-21T00:53:47.843Z,31.20
2023-01-21T00:56:15.855Z,31.30
2023-01-21T00:58:44.341Z,30.70
2023-01-21T01:01:14.507Z,30.20
2023-01-21T01:03:44.312Z,30.15
2023-01-21T01:06:14.548Z,28.58
2023-01-21T01:08:43.083Z,30.40
2023-01-21T01:11:11.911Z,29.65
2023-01-21T01:13:40.990Z,30.88
2023-01-21T01:16:09.922Z,29.20
2023-01-21T01:18:38.610Z,29.00
2023-01-21T01:21:11.245Z,28.92
2023-01-21T01:23:39.222Z,28.17
2023-01-21T01:26:11.231Z,27.77
2023-01-21T01:28:39.614Z,27.80
2023-01-21T01:31:09.839Z,27.73
2023-01-21T01:33:37.896Z,29.75
2023-01-21T01:36:09.522Z,28.67
2023-01-21T01:38:37.479Z,28.13
2023-01-21T01:41:05.762Z,28.85
2023-01-21T01:43:53.231Z,27.53
2023-01-21T01:46:21.753Z,26.63
2023-01-21T01:48:53.507Z,28.48
2023-01-21T01:51:27.539Z,27.38
2023-01-21T01:53:55.569Z,28.80
2023-01-21T01:56:23.792Z,27.23
2023-01-21T01:58:52.481Z,28.92
2023-01-21T02:01:20.860Z,27.13
2023-01-21T02:03:54.409Z,27.35
2023-01-21T02:06:23.721Z,27.47
2023-01-21T02:08:52.965Z,28.65
2023-01-21T02:11:21.463Z,27.40
2023-01-21T02:13:53.606Z,29.65
2023-01-21T02:16:38.569Z,27.15
2023-01-21T02:19:42.239Z,27.23
2023-01-21T02:22:20.879Z,26.02
2023-01-21T02:25:27.455Z,25.92
2023-01-21T02:28:07.120Z,26.35
2023-01-21T02:31:07.984Z,25.47
2023-01-21T02:33:47.564Z,27.25
2023-01-21T02:36:32.483Z,27.42
2023-01-21T02:39:07.823Z,25.60
2023-01-21T02:41:46.861Z,26.58
2023-01-21T02:44:20.640Z,25.73
2023-01-21T02:46:53.725Z,25.27
2023-01-21T02:49:28.030Z,24.65
2023-01-21T02:51:56.106Z,25.52
2023-01-21T02:54:50.200Z,25.63
2023-01-21T02:57:25.963Z,25.55
2023-01-21T02:59:57.400Z,26.60
2023-01-21T03:02:41.486Z,25.40
2023-01-21T03:05:18.528Z,26.48
2023-01-21T03:07:51.368Z,24.40
2023-01-21T03:10:28.270Z,26.02
2023-01-21T03:13:02.761Z,25.45
2023-01-21T03:15:53.950Z,25.77
2023-01-21T03:18:27.579Z,24.60
2023-01-21T03:21:00.115Z,24.80
2023-01-21T03:23:34.050Z,25.33
2023-01-21T03:26:03.622Z,25.55
2023-01-21T03:28:35.762Z,25.23
2023-01-21T03:31:08.579Z,24.60
2023-01-21T03:33:41.378Z,25.80
2023-01-21T03:36:16.611Z,26.02
2023-01-21T03:38:49.142Z,26.00
2023-01-21T03:41:21.633Z,26.08
2023-01-21T03:43:49.852Z,25.88
2023-01-21T03:46:22.819Z,24.50
2023-01-21T03:48:55.149Z,25.50
2023-01-21T03:51:31.600Z,25.15
2023-01-21T03:54:00.721Z,25.70
2023-01-21T03:56:29.477Z,24.90
2023-01-21T03:58:57.502Z,24.67
2023-01-21T04:01:25.494Z,24.75
2023-01-21T04:03:53.441Z,23.90
2023-01-21T04:06:24.109Z,24.73
2023-01-21T04:08:52.051Z,26.25
2023-01-21T04:11:20.034Z,25.38
2023-01-21T04:13:48.058Z,25.30
2023-01-21T04:16:16.097Z,24.35
2023-01-21T04:18:44.135Z,23.83
2023-01-21T04:21:12.077Z,25.75
2023-01-21T04:23:41.620Z,25.42
2023-01-21T04:26:09.989Z,25.70
2023-01-21T04:28:38.104Z,24.75
2023-01-21T04:31:06.218Z,25.23
2023-01-21T04:33:34.191Z,25.30
2023-01-21T04:36:02.670Z,25.85
2023-01-21T04:38:30.606Z,25.25
2023-01-21T04:41:00.124Z,24.10
2023-01-21T04:43:28.086Z,25.23
2023-01-21T04:45:56.040Z,24.13
2023-01-21T04:48:24.371Z,24.48
2023-01-21T04:50:52.368Z,25.15
2023-01-21T04:53:20.401Z,25.17
2023-01-21T04:55:48.378Z,24.48
2023-01-21T04:58:17.746Z,24.83
2023-01-21T05:00:45.713Z,25.35
2023-01-21T05:03:13.740Z,25.70
2023-01-21T05:05:41.680Z,24.87
2023-01-21T05:08:09.651Z,25.70
2023-01-21T05:10:37.613Z,25.55
2023-01-21T05:13:05.949Z,26.05
2023-01-21T05:15:35.373Z,24.20
2023-01-21T05:18:03.398Z,25.40
2023-01-21T05:20:31.370Z,24.55
2023-01-21T05:22:59.356Z,26.55
2023-01-21T05:25:27.330Z,23.95
2023-01-21T05:27:56.386Z,24.13
2023-01-21T05:30:24.447Z,23.50
2023-01-21T05:32:54.845Z,24.38
2023-01-21T05:35:24.109Z,23.63
2023-01-21T05:37:52.182Z,24.23
2023-01-21T05:40:20.512Z,24.95
2023-01-21T05:42:48.699Z,24.70
2023-01-21T05:45:16.857Z,24.55
2023-01-21T05:47:44.836Z,24.48
2023-01-21T05:50:14.418Z,25.40
2023-01-21T05:52:42.637Z,24.63
2023-01-21T05:55:10.862Z,24.80
2023-01-21T05:57:38.797Z,25.80
2023-01-21T06:00:08.000Z,25.50
2023-01-21T06:02:36.043Z,25.55
2023-01-21T06:05:04.146Z,24.73
2023-01-21T06:07:33.442Z,26.08
2023-01-21T06:10:01.345Z,25.60
2023-01-21T06:12:29.269Z,25.20
2023-01-21T06:14:57.246Z,24.77
2023-01-21T06:17:25.214Z,24.43
2023-01-21T06:19:53.307Z,24.63
2023-01-21T06:22:21.425Z,25.38
2023-01-21T06:24:50.741Z,24.63
2023-01-21T06:27:18.740Z,25.77
2023-01-21T06:29:46.781Z,27.65
2023-01-21T06:32:14.825Z,24.98
2023-01-21T06:34:44.163Z,25.48
2023-01-21T06:37:13.692Z,27.55
2023-01-21T06:39:41.640Z,27.90
2023-01-21T06:42:11.034Z,28.97
2023-01-21T06:44:38.987Z,27.63
2023-01-21T06:47:07.113Z,28.13
2023-01-21T06:49:35.114Z,26.27
2023-01-21T06:52:03.219Z,26.48
2023-01-21T06:54:31.172Z,25.90
2023-01-21T06:56:59.189Z,27.23
2023-01-21T06:59:28.548Z,25.55
2023-01-21T07:01:58.970Z,25.83
2023-01-21T07:04:27.468Z,25.75
2023-01-21T07:06:55.548Z,27.27
2023-01-21T07:09:23.507Z,26.35
2023-01-21T07:11:51.673Z,24.33
2023-01-21T07:14:19.637Z,26.40
2023-01-21T07:16:48.995Z,24.08
2023-01-21T07:19:17.027Z,25.58
2023-01-21T07:21:45.036Z,26.27
2023-01-21T07:24:12.984Z,25.50
2023-01-21T07:26:41.606Z,25.02
2023-01-21T07:29:09.802Z,26.27
2023-01-21T07:31:38.034Z,25.80
2023-01-21T07:34:07.732Z,26.77
2023-01-21T07:36:35.687Z,26.08
2023-01-21T07:39:03.739Z,26.20
2023-01-21T07:41:31.706Z,24.93
2023-01-21T07:43:59.726Z,24.65
2023-01-21T07:46:27.925Z,26.38
2023-01-21T07:48:55.921Z,25.48
2023-01-21T07:51:25.231Z,27.70
2023-01-21T07:53:53.226Z,26.08
2023-01-21T07:56:21.261Z,26.58
2023-01-21T07:58:50.448Z,26.23
2023-01-21T08:01:18.473Z,26.53
2023-01-21T08:03:46.473Z,26.25
2023-01-21T08:06:15.396Z,26.00
2023-01-21T08:08:44.689Z,27.58
2023-01-21T08:11:12.627Z,25.65
2023-01-21T08:13:40.638Z,26.43
2023-01-21T08:16:11.633Z,27.60
2023-01-21T08:18:39.663Z,26.33
2023-01-21T08:21:07.597Z,26.90
2023-01-21T08:23:35.762Z,27.77
2023-01-21T08:26:05.852Z,28.27
2023-01-21T08:28:34.144Z,26.30
2023-01-21T08:31:06.603Z,26.80
2023-01-21T08:33:34.669Z,28.95
2023-01-21T08:36:03.038Z,28.77
2023-01-21T08:38:31.176Z,28.08
2023-01-21T08:40:59.647Z,28.80
2023-01-21T08:43:29.062Z,28.58
2023-01-21T08:45:58.635Z,30.25
2023-01-21T08:48:26.740Z,29.35
2023-01-21T08:50:54.798Z,27.70
2023-01-21T08:53:22.891Z,28.40
2023-01-21T08:55:50.807Z,28.67
2023-01-21T08:58:18.765Z,28.60
2023-01-21T09:00:48.720Z,29.85
2023-01-21T09:03:19.321Z,27.38
2023-01-21T09:05:47.370Z,27.35
2023-01-21T09:08:15.519Z,27.50
2023-01-21T09:11:00.816Z,26.20
2023-01-21T09:13:30.203Z,26.63
2023-01-21T09:15:59.827Z,26.47
2023-01-21T09:18:27.872Z,25.95
2023-01-21T09:21:00.620Z,26.70
2023-01-21T09:23:32.089Z,26.30
2023-01-21T09:26:05.351Z,27.00
2023-01-21T09:28:35.531Z,26.57
2023-01-21T09:31:06.710Z,26.23
2023-01-21T09:33:37.142Z,27.65
2023-01-21T09:36:07.082Z,26.15
2023-01-21T09:38:35.187Z,28.40
2023-01-21T09:41:13.197Z,27.15
2023-01-21T09:43:46.179Z,27.42
2023-01-21T09:46:20.204Z,28.03
2023-01-21T09:48:50.517Z,26.85
2023-01-21T09:51:23.436Z,25.95
2023-01-21T09:53:53.704Z,25.98
2023-01-21T09:56:28.338Z,26.33
2023-01-21T09:59:03.858Z,27.52
2023-01-21T10:01:38.102Z,28.25
2023-01-21T10:04:27.720Z,28.80
2023-01-21T10:07:00.688Z,27.25
2023-01-21T10:09:43.524Z,27.65
2023-01-21T10:12:30.292Z,29.23
2023-01-21T10:15:13.861Z,27.90
2023-01-21T10:17:53.389Z,27.10
2023-01-21T10:20:25.455Z,28.25
2023-01-21T10:22:58.460Z,28.30
2023-01-21T10:25:31.216Z,27.15
2023-01-21T10:28:03.562Z,28.85
2023-01-21T10:30:37.708Z,28.50
2023-01-21T10:33:08.407Z,28.75
2023-01-21T10:35:47.927Z,30.50
2023-01-21T10:38:24.493Z,28.65
2023-01-21T10:40:59.938Z,29.08
2023-01-21T10:43:37.476Z,28.60
2023-01-21T10:46:18.164Z,29.55
2023-01-21T10:48:53.943Z,29.20
2023-01-21T10:51:41.581Z,30.38
2023-01-21T10:54:17.030Z,29.73
2023-01-21T10:57:01.669Z,29.03
2023-01-21T10:59:33.819Z,30.30
2023-01-21T11:02:21.671Z,31.75
2023-01-21T11:04:52.191Z,32.13
2023-01-21T11:07:22.364Z,30.50
2023-01-21T11:09:50.587Z,30.42
2023-01-21T11:12:20.263Z,32.38
2023-01-21T11:14:51.615Z,32.17
2023-01-21T11:17:34.439Z,30.73
2023-01-21T11:20:06.412Z,31.15
2023-01-21T11:22:42.862Z,30.88
2023-01-21T11:25:26.592Z,30.90
2023-01-21T11:27:54.588Z,30.30
2023-01-21T11:30:48.665Z,30.70
2023-01-21T11:33:26.896Z,27.90
2023-01-21T11:35:58.311Z,29.40
2023-01-21T11:38:33.855Z,26.70
2023-01-21T11:41:04.356Z,28.05
2023-01-21T11:43:40.851Z,29.27
2023-01-21T11:46:39.249Z,26.95
2023-01-21T11:49:23.127Z,26.95
2023-01-21T11:52:06.597Z,27.75
2023-01-21T11:54:40.012Z,27.08
2023-01-21T11:57:23.529Z,27.70
2023-01-21T11:59:53.244Z,28.10
2023-01-21T12:02:23.895Z,27.50
2023-01-21T12:04:56.574Z,27.13
2023-01-21T12:07:28.523Z,26.30
2023-01-21T12:10:04.325Z,26.88
2023-01-21T12:12:52.669Z,26.40
2023-01-21T12:15:32.655Z,27.88
2023-01-21T12:18:17.804Z,25.90
2023-01-21T12:20:55.238Z,27.35
2023-01-21T12:23:50.247Z,26.35
2023-01-21T12:26:36.067Z,27.20
2023-01-21T12:29:19.570Z,26.88
2023-01-21T12:31:54.587Z,25.23
2023-01-21T12:34:30.146Z,27.80
2023-01-21T12:37:03.329Z,26.77
2023-01-21T12:39:37.372Z,26.67
2023-01-21T12:42:11.055Z,26.98
2023-01-21T12:44:45.113Z,27.52
2023-01-21T12:47:21.929Z,25.98
2023-01-21T12:50:04.386Z,25.50
2023-01-21T12:52:39.795Z,26.13
2023-01-21T12:55:17.945Z,27.67
2023-01-21T12:57:51.712Z,28.00
2023-01-21T13:00:23.343Z,25.85
2023-01-21T13:03:00.250Z,27.25
2023-01-21T13:05:36.151Z,27.30
2023-01-21T13:08:16.494Z,27.98
2023-01-21T13:10:49.324Z,26.93
2023-01-21T13:13:21.596Z,27.00
2023-01-21T13:15:53.241Z,28.20
2023-01-21T13:18:27.101Z,29.35
2023-01-21T13:20:59.619Z,26.40
2023-01-21T13:23:32.687Z,26.02
2023-01-21T13:26:07.925Z,26.10
2023-01-21T13:28:42.267Z,26.17
2023-01-21T13:31:18.234Z,25.05
2023-01-21T13:33:56.741Z,25.20
2023-01-21T13:36:39.213Z,24.70
2023-01-21T13:39:18.378Z,25.58
2023-01-21T13:41:57.646Z,24.88
2023-01-21T13:44:46.356Z,23.95
2023-01-21T13:47:26.765Z,24.20
2023-01-21T13:50:17.964Z,24.67
2023-01-21T13:53:02.483Z,23.23
2023-01-21T13:55:44.268Z,25.00
2023-01-21T13:58:15.653Z,24.57
2023-01-21T14:00:47.724Z,24.17
2023-01-21T14:03:25.110Z,25.67
2023-01-21T14:05:57.414Z,25.38
2023-01-21T14:08:31.394Z,27.45
2023-01-21T14:11:06.587Z,26.83
2023-01-21T14:14:37.893Z,26.07
2023-01-21T14:17:32.140Z,26.02
2023-01-21T14:20:44.619Z,25.70
2023-01-21T14:23:27.633Z,26.42
2023-01-21T14:26:11.451Z,25.80
2023-01-21T14:28:49.229Z,24.42
2023-01-21T14:31:21.892Z,24.80
2023-01-21T14:33:58.700Z,24.70
2023-01-21T14:36:36.023Z,23.58
2023-01-21T14:39:09.658Z,24.02
2023-01-21T14:42:02.387Z,24.50
2023-01-21T14:44:41.452Z,24.00
2023-01-21T14:47:18.980Z,23.45
2023-01-21T14:49:50.072Z,24.57
2023-01-21T14:52:19.965Z,23.67
2023-01-21T14:54:48.947Z,25.02
2023-01-21T14:57:33.021Z,24.17
2023-01-21T15:00:13.939Z,22.85
2023-01-21T15:02:45.147Z,23.35
2023-01-21T15:05:22.415Z,23.53
2023-01-21T15:07:58.822Z,24.27
2023-01-21T15:10:31.785Z,24.35
2023-01-21T15:13:03.306Z,24.33
2023-01-21T15:15:34.984Z,25.30
2023-01-21T15:18:22.685Z,23.95
2023-01-21T15:20:53.049Z,22.42
2023-01-21T15:23:35.947Z,25.40
2023-01-21T15:26:16.545Z,23.25
2023-01-21T15:28:46.114Z,23.70
2023-01-21T15:31:31.424Z,24.13
2023-01-21T15:34:02.002Z,23.58
2023-01-21T15:36:34.709Z,22.50
2023-01-21T15:39:11.116Z,21.48
2023-01-21T15:41:46.924Z,25.88
2023-01-21T15:44:37.393Z,24.70
2023-01-21T15:47:20.546Z,23.33
2023-01-21T15:49:57.007Z,22.30
2023-01-21T15:52:42.203Z,23.45
2023-01-21T15:55:23.039Z,22.85
2023-01-21T15:57:58.896Z,23.10
2023-01-21T16:00:33.750Z,23.80
2023-01-21T16:03:13.802Z,22.63
2023-01-21T16:05:50.573Z,22.25
2023-01-21T16:08:28.039Z,22.20
2023-01-21T16:11:18.571Z,22.33
2023-01-21T16:13:54.727Z,23.60
2023-01-21T16:16:37.528Z,23.08
2023-01-21T16:19:08.856Z,23.70
2023-01-21T16:21:40.151Z,25.45
2023-01-21T16:24:13.498Z,23.13
2023-01-21T16:26:41.642Z,23.85
2023-01-21T16:29:13.172Z,22.70
2023-01-21T16:31:48.460Z,22.95
2023-01-21T16:34:24.020Z,23.25
2023-01-21T16:36:52.326Z,22.55
2023-01-21T16:39:21.718Z,22.60
2023-01-21T16:42:01.642Z,24.23
2023-01-21T16:44:30.480Z,23.05
2023-01-21T16:46:58.721Z,21.70
2023-01-21T16:49:27.187Z,23.23
2023-01-21T16:51:57.568Z,23.73
2023-01-21T16:54:29.384Z,24.97
2023-01-21T16:56:59.849Z,23.35
2023-01-21T16:59:30.448Z,24.50
2023-01-21T17:02:00.124Z,23.83
2023-01-21T17:04:30.244Z,25.00
2023-01-21T17:06:59.283Z,25.33
2023-01-21T17:09:32.683Z,25.00
2023-01-21T17:12:05.858Z,25.20
2023-01-21T17:14:35.505Z,25.10
2023-01-21T17:17:08.236Z,26.77
2023-01-21T17:19:39.136Z,26.60
2023-01-21T17:22:15.346Z,25.00
2023-01-21T17:24:56.664Z,25.52
2023-01-21T17:27:26.356Z,26.17
2023-01-21T17:29:54.472Z,25.55
2023-01-21T17:32:28.339Z,23.35
2023-01-21T17:35:10.192Z,25.17
2023-01-21T17:37:46.252Z,23.58
2023-01-21T17:40:34.561Z,23.80
2023-01-21T17:43:16.835Z,23.80
2023-01-21T17:45:46.865Z,23.20
2023-01-21T17:48:24.047Z,25.13
2023-01-21T17:50:52.642Z,22.98
2023-01-21T17:53:25.980Z,22.55
2023-01-21T17:56:00.902Z,25.27
2023-01-21T17:58:49.544Z,22.92
2023-01-21T18:01:19.128Z,24.48
2023-01-21T18:03:47.192Z,23.00
2023-01-21T18:06:19.903Z,24.80
2023-01-21T18:08:47.945Z,25.35
2023-01-21T18:11:18.951Z,24.70
2023-01-21T18:13:46.898Z,23.55
2023-01-21T18:16:15.418Z,26.80
2023-01-21T18:18:43.445Z,24.17
2023-01-21T18:21:19.852Z,25.55
2023-01-21T18:23:48.329Z,24.90
2023-01-21T18:26:26.126Z,23.90
2023-01-21T18:28:54.125Z,24.90
2023-01-21T18:31:22.979Z,26.13
2023-01-21T18:33:51.178Z,24.50
2023-01-21T18:36:19.152Z,25.55
2023-01-21T18:38:47.131Z,25.70
2023-01-21T18:41:15.099Z,23.77
2023-01-21T18:43:44.384Z,26.37
2023-01-21T18:46:13.941Z,27.10
2023-01-21T18:48:42.992Z,27.58
2023-01-21T18:51:11.292Z,28.65
2023-01-21T18:53:39.383Z,27.45
2023-01-21T18:56:13.124Z,25.73
2023-01-21T18:58:41.118Z,26.27
2023-01-21T19:01:21.938Z,27.23
2023-01-21T19:03:52.107Z,27.38
2023-01-21T19:06:20.190Z,25.98
2023-01-21T19:08:48.862Z,27.35
2023-01-21T19:11:17.993Z,27.10
2023-01-21T19:13:45.966Z,27.23
2023-01-21T19:16:18.042Z,28.73
2023-01-21T19:18:46.147Z,27.10
2023-01-21T19:21:14.217Z,27.37
2023-01-21T19:23:42.347Z,27.05
2023-01-21T19:26:13.613Z,26.88
2023-01-21T19:28:41.662Z,26.85
2023-01-21T19:31:09.739Z,27.03
2023-01-21T19:33:41.902Z,28.10
2023-01-21T19:36:16.417Z,29.65
2023-01-21T19:38:46.696Z,28.40
2023-01-21T19:41:14.646Z,28.95
2023-01-21T19:43:42.664Z,30.67
2023-01-21T19:46:12.570Z,31.95
2023-01-21T19:48:42.111Z,31.92
2023-01-21T19:51:10.796Z,30.58
2023-01-21T19:53:38.835Z,32.72
2023-01-21T19:56:07.869Z,30.60
2023-01-21T19:58:36.309Z,32.72
2023-01-21T20:01:04.308Z,31.52
2023-01-21T20:03:32.267Z,34.45
2023-01-21T20:06:03.155Z,34.05
2023-01-21T20:08:32.528Z,33.22
2023-01-21T20:11:00.487Z,33.53
2023-01-21T20:13:32.143Z,32.90
2023-01-21T20:16:03.554Z,32.47
2023-01-21T20:18:33.367Z,31.42
2023-01-21T20:21:02.667Z,32.75
2023-01-21T20:23:32.619Z,31.77
2023-01-21T20:26:01.134Z,32.20
2023-01-21T20:28:39.686Z,33.55
2023-01-21T20:31:08.581Z,34.10
2023-01-21T20:33:37.329Z,31.55
2023-01-21T20:36:08.589Z,34.45
2023-01-21T20:38:38.417Z,31.95
2023-01-21T20:41:07.238Z,32.10
2023-01-21T20:43:35.215Z,31.02
2023-01-21T20:46:06.477Z,32.17
2023-01-21T20:48:37.233Z,33.80
2023-01-21T20:51:07.420Z,30.23
2023-01-21T20:53:35.531Z,30.65
2023-01-21T20:56:15.353Z,27.92
2023-01-21T20:58:45.022Z,28.17
2023-01-21T21:01:13.590Z,25.27
2023-01-21T21:03:41.828Z,25.48
2023-01-21T21:06:15.109Z,23.70
2023-01-21T21:08:43.314Z,26.35
2023-01-21T21:11:11.686Z,23.20
2023-01-21T21:13:39.673Z,22.90
2023-01-21T21:16:18.946Z,23.38
2023-01-21T21:18:47.693Z,21.92
2023-01-21T21:21:17.713Z,22.80
2023-01-21T21:23:46.796Z,22.23
2023-01-21T21:26:22.105Z,21.10
2023-01-21T21:28:50.396Z,20.80
2023-01-21T21:31:19.124Z,22.88
2023-01-21T21:33:47.264Z,20.50
2023-01-21T21:36:18.368Z,19.50
2023-01-21T21:38:47.115Z,19.23
2023-01-21T21:41:34.378Z,20.15
2023-01-21T21:44:02.366Z,20.60
2023-01-21T21:46:47.930Z,20.13
2023-01-21T21:49:16.051Z,21.48
2023-01-21T21:51:45.963Z,20.05
2023-01-21T21:54:16.028Z,20.45
2023-01-21T21:56:44.091Z,19.55
2023-01-21T21:59:12.585Z,20.10
2023-01-21T22:01:42.561Z,19.33
2023-01-21T22:04:10.627Z,18.85
2023-01-21T22:06:38.787Z,19.47
2023-01-21T22:09:08.336Z,19.20
2023-01-21T22:11:36.275Z,18.43
2023-01-21T22:14:04.828Z,18.92
2023-01-21T22:16:33.545Z,19.38
2023-01-21T22:19:02.043Z,19.63
2023-01-21T22:21:32.930Z,18.33
2023-01-21T22:24:01.241Z,18.85
2023-01-21T22:26:31.146Z,20.30
2023-01-21T22:28:59.309Z,19.40
2023-01-21T22:31:29.058Z,19.10
2023-01-21T22:33:57.451Z,19.10
2023-01-21T22:36:27.337Z,19.55
2023-01-21T22:38:55.535Z,19.30
2023-01-21T22:41:24.399Z,20.50
2023-01-21T22:43:54.736Z,20.33
2023-01-21T22:46:25.030Z,18.92
2023-01-21T22:48:54.667Z,18.15
2023-01-21T22:51:23.389Z,18.30
2023-01-21T22:53:52.248Z,18.07
2023-01-21T22:56:25.395Z,19.13
2023-01-21T22:58:58.210Z,18.80
2023-01-21T23:01:28.067Z,19.63
2023-01-21T23:03:56.206Z,19.10
2023-01-21T23:06:24.892Z,18.67
2023-01-21T23:08:53.110Z,18.55
2023-01-21T23:11:21.504Z,19.15
2023-01-21T23:13:50.201Z,18.85
2023-01-21T23:16:21.080Z,19.25
2023-01-21T23:18:49.878Z,20.30
2023-01-21T23:21:20.368Z,19.80
2023-01-21T23:23:48.445Z,20.80
2023-01-21T23:26:19.057Z,20.73
2023-01-21T23:28:47.212Z,20.70
2023-01-21T23:31:17.612Z,22.00
2023-01-21T23:33:50.632Z,21.40
2023-01-21T23:36:19.066Z,20.10
2023-01-21T23:38:47.252Z,20.55
2023-01-21T23:41:19.718Z,22.27
2023-01-21T23:43:47.855Z,23.00
2023-01-21T23:46:19.520Z,23.40
2023-01-21T23:48:49.187Z,23.73
2023-01-21T23:51:18.589Z,23.90
2023-01-21T23:53:47.674Z,23.65
2023-01-21T23:56:17.449Z,22.95
2023-01-21T23:58:45.404Z,24.67
